createdAt,value
2023-02-07T00:01:14.464Z,99345.72
2023-02-07T00:04:00.526Z,99342.50
2023-02-07T00:06:49.188Z,99348.84
2023-02-07T00:09:37.469Z,99352.41
2023-02-07T00:12:23.403Z,99355.13
2023-02-07T00:15:09.277Z,99356.88
2023-02-07T00:17:54.670Z,99360.44
2023-02-07T00:20:40.104Z,99346.34
2023-02-07T00:23:25.329Z,99364.66
2023-02-07T00:26:12.174Z,99357.94
2023-02-07T00:28:58.826Z,99353.72
2023-02-07T00:31:46.218Z,99344.22
2023-02-07T00:34:32.323Z,99349.38
2023-02-07T00:37:18.154Z,99348.56
2023-02-07T00:40:04.199Z,99342.63
2023-02-07T00:42:49.554Z,99346.19
2023-02-07T00:45:34.737Z,99354.00
2023-02-07T00:48:21.115Z,99362.81
2023-02-07T00:51:07.012Z,99362.13
2023-02-07T00:53:56.616Z,99360.50
2023-02-07T00:56:43.080Z,99380.34
2023-02-07T00:59:28.293Z,99378.75
2023-02-07T01:02:13.591Z,99389.97
2023-02-07T01:05:00.340Z,99406.31
2023-02-07T01:07:46.108Z,99398.72
2023-02-07T01:10:32.331Z,99404.00
2023-02-07T01:13:18.331Z,99395.72
2023-02-07T01:16:04.324Z,99388.81
2023-02-07T01:18:50.108Z,99393.25
2023-02-07T01:21:36.146Z,99398.47
2023-02-07T01:24:23.140Z,99397.56
2023-02-07T01:27:10.927Z,99400.06
2023-02-07T01:29:56.518Z,99393.06
2023-02-07T01:32:41.889Z,99389.69
2023-02-07T01:35:28.611Z,99409.59
2023-02-07T01:38:14.238Z,99404.66
2023-02-07T01:41:02.573Z,99396.22
2023-02-07T01:43:58.889Z,99392.09
2023-02-07T01:46:44.203Z,99372.44
2023-02-07T01:49:34.414Z,99367.28
2023-02-07T01:52:29.531Z,99371.72
2023-02-07T01:55:34.210Z,99389.03
2023-02-07T01:58:19.797Z,99390.72
2023-02-07T02:01:23.892Z,99375.19
2023-02-07T02:04:14.449Z,99375.28
2023-02-07T02:07:00.426Z,99361.63
2023-02-07T02:09:48.626Z,99365.09
2023-02-07T02:12:58.265Z,99364.44
2023-02-07T02:15:55.577Z,99362.78
2023-02-07T02:18:43.907Z,99360.31
2023-02-07T02:21:51.050Z,99368.19
2023-02-07T02:24:42.409Z,99363.97
2023-02-07T02:27:57.676Z,99355.50
2023-02-07T02:31:34.446Z,99353.09
2023-02-07T02:34:39.989Z,99354.13
2023-02-07T02:37:34.600Z,99346.47
2023-02-07T02:40:33.900Z,99348.31
2023-02-07T02:43:31.286Z,99347.78
2023-02-07T02:46:34.929Z,99350.53
2023-02-07T02:49:23.003Z,99344.66
2023-02-07T02:52:08.490Z,99346.41
2023-02-07T02:55:01.473Z,99342.16
2023-02-07T02:57:52.353Z,99333.59
2023-02-07T03:01:04.985Z,99332.94
2023-02-07T03:04:14.729Z,99335.56
2023-02-07T03:07:29.653Z,99328.81
2023-02-07T03:10:26.618Z,99336.63
2023-02-07T03:13:54.223Z,99341.91
2023-02-07T03:16:48.430Z,99340.31
2023-02-07T03:19:55.398Z,99337.84
2023-02-07T03:22:43.411Z,99336.16
2023-02-07T03:25:31.593Z,99343.88
2023-02-07T03:28:23.884Z,99353.41
2023-02-07T03:31:15.730Z,99336.28
2023-02-07T03:34:10.145Z,99344.00
2023-02-07T03:37:01.144Z,99344.00
2023-02-07T03:39:55.830Z,99343.22
2023-02-07T03:42:48.199Z,99335.47
2023-02-07T03:45:34.022Z,99356.06
2023-02-07T03:48:19.784Z,99344.81
2023-02-07T03:51:05.385Z,99344.81
2023-02-07T03:53:50.984Z,99339.53
2023-02-07T03:56:37.258Z,99342.09
2023-02-07T03:59:22.568Z,99348.13
2023-02-07T04:02:07.899Z,99352.44
2023-02-07T04:04:53.227Z,99351.56
2023-02-07T04:07:40.516Z,99340.41
2023-02-07T04:10:25.913Z,99343.88
2023-02-07T04:13:11.345Z,99354.31
2023-02-07T04:15:57.212Z,99347.47
2023-02-07T04:18:42.698Z,99354.38
2023-02-07T04:21:31.176Z,99345.88
2023-02-07T04:24:16.501Z,99348.50
2023-02-07T04:27:01.957Z,99333.19
2023-02-07T04:29:47.068Z,99331.56
2023-02-07T04:32:32.458Z,99325.63
2023-02-07T04:35:20.787Z,99326.59
2023-02-07T04:38:06.269Z,99333.47
2023-02-07T04:40:52.266Z,99329.22
2023-02-07T04:43:37.955Z,99324.16
2023-02-07T04:46:23.660Z,99323.38
2023-02-07T04:49:09.352Z,99345.69
2023-02-07T04:51:54.803Z,99344.91
2023-02-07T04:54:40.311Z,99346.63
2023-02-07T04:57:25.492Z,99345.84
2023-02-07T05:00:11.479Z,99332.34
2023-02-07T05:02:57.521Z,99342.84
2023-02-07T05:05:45.617Z,99339.50
2023-02-07T05:08:31.088Z,99342.94
2023-02-07T05:11:16.922Z,99337.03
2023-02-07T05:14:03.459Z,99349.88
2023-02-07T05:16:48.816Z,99339.72
2023-02-07T05:19:34.172Z,99343.19
2023-02-07T05:22:19.434Z,99344.06
2023-02-07T05:25:06.204Z,99357.94
2023-02-07T05:27:51.777Z,99366.78
2023-02-07T05:30:37.362Z,99365.16
2023-02-07T05:33:22.721Z,99374.53
2023-02-07T05:36:09.578Z,99376.38
2023-02-07T05:38:55.333Z,99378.09
2023-02-07T05:41:40.584Z,99380.72
2023-02-07T05:44:26.292Z,99377.38
2023-02-07T05:47:11.669Z,99379.94
2023-02-07T05:49:56.961Z,99372.34
2023-02-07T05:52:45.574Z,99381.84
2023-02-07T05:55:31.134Z,99390.50
2023-02-07T05:58:16.599Z,99396.53
2023-02-07T06:01:03.807Z,99395.69
2023-02-07T06:03:49.181Z,99385.47
2023-02-07T06:06:34.730Z,99394.09
2023-02-07T06:09:20.270Z,99396.78
2023-02-07T06:12:06.228Z,99403.66
2023-02-07T06:14:54.060Z,99402.94
2023-02-07T06:17:39.430Z,99416.56
2023-02-07T06:20:24.906Z,99415.72
2023-02-07T06:23:11.520Z,99416.69
2023-02-07T06:25:56.849Z,99414.09
2023-02-07T06:28:42.317Z,99416.69
2023-02-07T06:31:27.644Z,99421.81
2023-02-07T06:34:12.936Z,99425.28
2023-02-07T06:36:58.338Z,99432.19
2023-02-07T06:39:43.672Z,99433.03
2023-02-07T06:42:29.207Z,99437.22
2023-02-07T06:45:14.435Z,99452.59
2023-02-07T06:47:59.898Z,99460.25
2023-02-07T06:50:45.433Z,99463.66
2023-02-07T06:53:30.567Z,99472.09
2023-02-07T06:56:18.746Z,99472.88
2023-02-07T06:59:07.203Z,99467.66
2023-02-07T07:01:52.688Z,99476.03
2023-02-07T07:04:37.999Z,99479.28
2023-02-07T07:07:23.650Z,99475.69
2023-02-07T07:10:13.102Z,99473.84
2023-02-07T07:12:59.123Z,99472.75
2023-02-07T07:15:46.676Z,99468.22
2023-02-07T07:18:31.953Z,99461.13
2023-02-07T07:21:17.346Z,99459.97
2023-02-07T07:24:02.675Z,99463.94
2023-02-07T07:26:50.066Z,99453.31
2023-02-07T07:29:35.830Z,99453.03
2023-02-07T07:32:33.220Z,99454.41
2023-02-07T07:35:20.464Z,99446.31
2023-02-07T07:38:05.724Z,99443.31
2023-02-07T07:40:51.230Z,99448.09
2023-02-07T07:43:36.569Z,99447.75
2023-02-07T07:46:22.095Z,99439.63
2023-02-07T07:49:07.446Z,99430.72
2023-02-07T07:51:52.765Z,99424.34
2023-02-07T07:54:38.374Z,99425.66
2023-02-07T07:57:28.070Z,99419.34
2023-02-07T08:00:13.768Z,99406.09
2023-02-07T08:02:59.091Z,99420.19
2023-02-07T08:05:45.153Z,99420.63
2023-02-07T08:08:30.803Z,99424.44
2023-02-07T08:11:16.444Z,99421.41
2023-02-07T08:14:02.201Z,99416.59
2023-02-07T08:16:47.602Z,99417.03
2023-02-07T08:19:32.964Z,99409.72
2023-02-07T08:22:18.368Z,99416.13
2023-02-07T08:25:04.368Z,99416.50
2023-02-07T08:27:49.652Z,99420.25
2023-02-07T08:30:35.548Z,99418.09
2023-02-07T08:33:21.007Z,99417.59
2023-02-07T08:36:09.393Z,99429.19
2023-02-07T08:38:54.757Z,99423.63
2023-02-07T08:41:40.117Z,99422.44
2023-02-07T08:44:25.642Z,99420.34
2023-02-07T08:47:11.450Z,99420.03
2023-02-07T08:49:56.847Z,99416.16
2023-02-07T08:52:42.361Z,99426.13
2023-02-07T08:55:27.871Z,99425.81
2023-02-07T08:58:13.440Z,99429.66
2023-02-07T09:00:58.918Z,99421.59
2023-02-07T09:03:44.230Z,99417.88
2023-02-07T09:06:29.751Z,99411.56
2023-02-07T09:09:15.297Z,99412.94
2023-02-07T09:12:00.962Z,99412.53
2023-02-07T09:14:46.350Z,99407.06
2023-02-07T09:17:31.752Z,99408.41
2023-02-07T09:20:17.358Z,99409.78
2023-02-07T09:23:17.889Z,99399.78
2023-02-07T09:26:06.154Z,99399.13
2023-02-07T09:28:51.806Z,99384.75
2023-02-07T09:31:37.334Z,99397.22
2023-02-07T09:34:24.270Z,99396.78
2023-02-07T09:37:09.744Z,99396.47
2023-02-07T09:39:55.506Z,99403.75
2023-02-07T09:42:53.694Z,99411.84
2023-02-07T09:45:45.362Z,99414.00
2023-02-07T09:48:52.288Z,99419.53
2023-02-07T09:51:40.042Z,99412.06
2023-02-07T09:54:47.890Z,99419.34
2023-02-07T09:57:42.115Z,99417.13
2023-02-07T10:00:35.343Z,99413.09
2023-02-07T10:03:24.167Z,99402.19
2023-02-07T10:06:22.354Z,99406.75
2023-02-07T10:09:14.340Z,99407.81
2023-02-07T10:12:46.785Z,99412.06
2023-02-07T10:15:35.179Z,99402.84
2023-02-07T10:18:40.499Z,99407.47
2023-02-07T10:21:55.952Z,99399.03
2023-02-07T10:24:47.724Z,99389.66
2023-02-07T10:27:42.536Z,99395.41
2023-02-07T10:30:33.802Z,99397.63
2023-02-07T10:33:23.708Z,99395.41
2023-02-07T10:36:14.949Z,99394.19
2023-02-07T10:39:11.452Z,99389.53
2023-02-07T10:41:57.740Z,99386.44
2023-02-07T10:44:43.714Z,99377.44
2023-02-07T10:47:30.520Z,99371.97
2023-02-07T10:50:29.360Z,99381.97
2023-02-07T10:53:54.175Z,99372.09
2023-02-07T10:56:46.278Z,99363.91
2023-02-07T10:59:46.185Z,99370.38
2023-02-07T11:02:31.751Z,99378.63
2023-02-07T11:05:17.587Z,99364.56
2023-02-07T11:08:22.972Z,99362.13
2023-02-07T11:11:27.225Z,99350.59
2023-02-07T11:14:21.397Z,99356.19
2023-02-07T11:17:07.047Z,99346.34
2023-02-07T11:19:53.171Z,99345.09
2023-02-07T11:22:38.796Z,99346.56
2023-02-07T11:25:34.456Z,99338.34
2023-02-07T11:28:22.860Z,99333.66
2023-02-07T11:31:14.574Z,99338.34
2023-02-07T11:34:24.918Z,99334.50
2023-02-07T11:37:26.135Z,99345.44
2023-02-07T11:40:29.730Z,99349.28
2023-02-07T11:43:22.122Z,99357.50
2023-02-07T11:46:10.081Z,99351.03
2023-02-07T11:48:58.251Z,99348.84
2023-02-07T11:51:44.113Z,99354.34
2023-02-07T11:54:31.414Z,99345.06
2023-02-07T11:57:17.704Z,99343.94
2023-02-07T12:00:21.363Z,99335.69
2023-02-07T12:03:16.848Z,99340.47
2023-02-07T12:06:05.073Z,99340.03
2023-02-07T12:08:52.462Z,99328.34
2023-02-07T12:11:40.958Z,99335.09
2023-02-07T12:14:30.017Z,99332.88
2023-02-07T12:17:23.311Z,99337.66
2023-02-07T12:20:33.028Z,99329.38
2023-02-07T12:23:43.645Z,99329.78
2023-02-07T12:26:31.331Z,99324.84
2023-02-07T12:29:16.596Z,99330.56
2023-02-07T12:32:07.951Z,99329.41
2023-02-07T12:35:14.106Z,99331.44
2023-02-07T12:38:13.656Z,99318.78
2023-02-07T12:41:15.476Z,99322.59
2023-02-07T12:44:09.878Z,99316.69
2023-02-07T12:47:05.350Z,99314.47
2023-02-07T12:50:04.827Z,99306.06
2023-02-07T12:52:59.232Z,99309.13
2023-02-07T12:55:53.040Z,99302.03
2023-02-07T12:58:44.413Z,99298.47
2023-02-07T13:01:47.057Z,99292.19
2023-02-07T13:05:01.586Z,99295.28
2023-02-07T13:08:19.829Z,99289.47
2023-02-07T13:11:26.856Z,99284.28
2023-02-07T13:14:42.868Z,99270.72
2023-02-07T13:17:34.268Z,99273.81
2023-02-07T13:20:19.827Z,99276.91
2023-02-07T13:23:26.876Z,99280.91
2023-02-07T13:26:17.390Z,99278.53
2023-02-07T13:29:12.290Z,99277.38
2023-02-07T13:32:02.222Z,99270.69
2023-02-07T13:35:01.156Z,99270.91
2023-02-07T13:38:17.486Z,99260.91
2023-02-07T13:41:33.926Z,99269.94
2023-02-07T13:44:29.947Z,99271.47
2023-02-07T13:47:15.098Z,99267.81
2023-02-07T13:50:01.664Z,99273.50
2023-02-07T13:53:03.130Z,99278.34
2023-02-07T13:55:49.654Z,99283.78
2023-02-07T13:58:53.631Z,99279.00
2023-02-07T14:01:47.799Z,99273.06
2023-02-07T14:04:52.768Z,99284.91
2023-02-07T14:07:39.754Z,99284.69
2023-02-07T14:10:45.885Z,99277.19
2023-02-07T14:13:36.354Z,99278.69
2023-02-07T14:16:47.705Z,99287.13
2023-02-07T14:19:39.669Z,99278.88
2023-02-07T14:22:32.317Z,99278.13
2023-02-07T14:25:22.484Z,99279.22
2023-02-07T14:28:28.945Z,99277.28
2023-02-07T14:31:23.297Z,99272.75
2023-02-07T14:34:14.593Z,99278.72
2023-02-07T14:37:00.818Z,99274.69
2023-02-07T14:39:48.073Z,99271.16
2023-02-07T14:42:34.079Z,99266.44
2023-02-07T14:45:21.596Z,99270.75
2023-02-07T14:48:45.381Z,99277.88
2023-02-07T14:51:37.099Z,99279.16
2023-02-07T14:54:39.779Z,99275.28
2023-02-07T14:58:04.970Z,99267.25
2023-02-07T15:00:56.254Z,99267.16
2023-02-07T15:03:41.882Z,99263.19
2023-02-07T15:06:32.607Z,99266.66
2023-02-07T15:09:26.520Z,99269.31
2023-02-07T15:12:27.022Z,99268.81
2023-02-07T15:15:20.780Z,99268.41
2023-02-07T15:18:06.424Z,99269.78
2023-02-07T15:20:58.531Z,99273.91
2023-02-07T15:23:48.655Z,99271.56
2023-02-07T15:26:36.395Z,99273.50
2023-02-07T15:29:36.858Z,99275.56
2023-02-07T15:32:29.789Z,99282.59
2023-02-07T15:35:23.040Z,99281.91
2023-02-07T15:38:20.698Z,99284.47
2023-02-07T15:41:07.653Z,99287.44
2023-02-07T15:44:16.478Z,99291.00
2023-02-07T15:47:06.801Z,99289.19
2023-02-07T15:50:02.823Z,99298.81
2023-02-07T15:52:55.217Z,99304.81
2023-02-07T15:55:46.725Z,99308.69
2023-02-07T15:58:36.020Z,99302.94
2023-02-07T16:01:32.500Z,99308.94
2023-02-07T16:04:17.931Z,99302.34
2023-02-07T16:07:13.421Z,99303.91
2023-02-07T16:10:16.577Z,99307.53
2023-02-07T16:13:11.949Z,99311.13
2023-02-07T16:16:00.197Z,99308.63
2023-02-07T16:18:48.461Z,99313.84
2023-02-07T16:21:36.024Z,99314.94
2023-02-07T16:24:24.484Z,99315.22
2023-02-07T16:27:18.649Z,99313.78
2023-02-07T16:30:04.768Z,99319.72
2023-02-07T16:32:50.940Z,99310.81
2023-02-07T16:35:36.376Z,99312.38
2023-02-07T16:38:21.707Z,99314.75
2023-02-07T16:41:09.643Z,99312.84
2023-02-07T16:43:55.499Z,99312.50
2023-02-07T16:46:40.949Z,99307.91
2023-02-07T16:49:27.810Z,99314.56
2023-02-07T16:52:13.709Z,99317.63
2023-02-07T16:54:59.107Z,99319.03
2023-02-07T16:57:45.976Z,99319.59
2023-02-07T17:00:31.571Z,99320.94
2023-02-07T17:03:16.940Z,99319.72
2023-02-07T17:06:02.667Z,99313.84
2023-02-07T17:08:49.798Z,99314.97
2023-02-07T17:11:35.788Z,99329.41
2023-02-07T17:14:21.861Z,99328.47
2023-02-07T17:17:07.754Z,99329.03
2023-02-07T17:19:53.528Z,99323.56
2023-02-07T17:22:39.081Z,99327.44
2023-02-07T17:25:29.483Z,99326.97
2023-02-07T17:28:18.440Z,99336.03
2023-02-07T17:31:04.170Z,99333.78
2023-02-07T17:33:51.640Z,99338.38
2023-02-07T17:36:39.081Z,99342.91
2023-02-07T17:39:24.760Z,99344.09
2023-02-07T17:42:09.996Z,99354.72
2023-02-07T17:44:55.317Z,99356.75
2023-02-07T17:47:42.529Z,99352.72
2023-02-07T17:50:38.020Z,99355.19
2023-02-07T17:53:23.669Z,99355.88
2023-02-07T17:56:17.570Z,99358.19
2023-02-07T17:59:06.498Z,99350.19
2023-02-07T18:01:52.643Z,99345.44
2023-02-07T18:04:38.008Z,99349.09
2023-02-07T18:07:26.357Z,99352.00
2023-02-07T18:10:33.820Z,99350.50
2023-02-07T18:13:20.849Z,99352.66
2023-02-07T18:16:08.178Z,99352.91
2023-02-07T18:18:55.421Z,99349.72
2023-02-07T18:21:40.924Z,99349.97
2023-02-07T18:24:26.712Z,99356.31
2023-02-07T18:27:17.030Z,99358.44
2023-02-07T18:30:03.233Z,99359.59
2023-02-07T18:32:49.189Z,99364.09
2023-02-07T18:35:35.021Z,99360.91
2023-02-07T18:38:20.985Z,99360.31
2023-02-07T18:41:15.039Z,99365.72
2023-02-07T18:44:00.444Z,99362.38
2023-02-07T18:46:45.907Z,99372.09
2023-02-07T18:49:33.987Z,99373.34
2023-02-07T18:52:20.065Z,99378.69
2023-02-07T18:55:06.138Z,99372.81
2023-02-07T18:57:55.677Z,99382.56
2023-02-07T19:00:43.324Z,99387.13
2023-02-07T19:03:28.528Z,99384.75
2023-02-07T19:06:14.219Z,99383.09
2023-02-07T19:09:00.530Z,99372.06
2023-02-07T19:11:50.541Z,99380.03
2023-02-07T19:14:36.242Z,99373.28
2023-02-07T19:17:24.829Z,99373.34
2023-02-07T19:20:11.272Z,99372.59
2023-02-07T19:22:56.616Z,99377.75
2023-02-07T19:25:47.596Z,99379.72
2023-02-07T19:28:34.502Z,99379.94
2023-02-07T19:31:20.541Z,99376.66
2023-02-07T19:34:07.427Z,99376.88
2023-02-07T19:36:53.885Z,99380.59
2023-02-07T19:39:39.426Z,99368.00
2023-02-07T19:42:24.942Z,99372.47
2023-02-07T19:45:11.331Z,99368.28
2023-02-07T19:47:56.557Z,99369.41
2023-02-07T19:50:41.987Z,99365.22
2023-02-07T19:53:28.764Z,99367.09
2023-02-07T19:56:14.644Z,99359.63
2023-02-07T19:59:03.125Z,99371.16
2023-02-07T20:01:48.548Z,99371.44
2023-02-07T20:04:34.425Z,99369.84
2023-02-07T20:07:19.750Z,99370.81
2023-02-07T20:10:05.508Z,99375.13
2023-02-07T20:12:51.089Z,99373.47
2023-02-07T20:15:44.343Z,99377.28
2023-02-07T20:18:33.742Z,99378.50
2023-02-07T20:21:22.334Z,99381.28
2023-02-07T20:24:08.146Z,99376.31
2023-02-07T20:26:53.750Z,99372.13
2023-02-07T20:29:39.111Z,99378.25
2023-02-07T20:32:24.556Z,99379.97
2023-02-07T20:35:09.939Z,99380.88
2023-02-07T20:37:55.230Z,99384.44
2023-02-07T20:40:40.884Z,99383.72
2023-02-07T20:43:26.426Z,99380.41
2023-02-07T20:46:14.194Z,99387.38
2023-02-07T20:49:02.778Z,99387.38
2023-02-07T20:51:50.088Z,99394.31
2023-02-07T20:54:35.284Z,99390.31
2023-02-07T20:57:20.944Z,99394.72
2023-02-07T21:00:08.584Z,99408.59
2023-02-07T21:02:54.237Z,99412.00
2023-02-07T21:05:39.876Z,99415.47
2023-02-07T21:08:25.199Z,99409.50
2023-02-07T21:11:11.812Z,99416.59
2023-02-07T21:13:57.111Z,99407.25
2023-02-07T21:16:43.077Z,99409.03
2023-02-07T21:19:28.678Z,99404.91
2023-02-07T21:22:13.794Z,99407.69
2023-02-07T21:24:59.062Z,99407.75
2023-02-07T21:27:44.477Z,99413.88
2023-02-07T21:30:29.794Z,99417.28
2023-02-07T21:33:15.770Z,99416.50
2023-02-07T21:36:09.695Z,99419.22
2023-02-07T21:38:56.664Z,99414.91
2023-02-07T21:41:44.034Z,99404.72
2023-02-07T21:44:29.687Z,99409.16
2023-02-07T21:47:15.019Z,99415.28
2023-02-07T21:50:00.318Z,99420.50
2023-02-07T21:52:45.775Z,99415.47
2023-02-07T21:55:31.979Z,99410.34
2023-02-07T21:58:17.795Z,99419.78
2023-02-07T22:01:08.428Z,99413.00
2023-02-07T22:03:56.033Z,99409.66
2023-02-07T22:06:44.147Z,99414.06
2023-02-07T22:09:30.301Z,99412.47
2023-02-07T22:12:15.867Z,99417.88
2023-02-07T22:15:01.134Z,99409.44
2023-02-07T22:17:46.717Z,99412.97
2023-02-07T22:20:32.403Z,99406.16
2023-02-07T22:23:18.671Z,99414.78
2023-02-07T22:26:05.320Z,99413.16
2023-02-07T22:28:51.176Z,99417.47
2023-02-07T22:31:39.081Z,99414.97
2023-02-07T22:34:25.080Z,99413.38
2023-02-07T22:37:10.457Z,99416.22
2023-02-07T22:39:55.927Z,99412.13
2023-02-07T22:42:41.326Z,99408.91
2023-02-07T22:45:26.996Z,99408.03
2023-02-07T22:48:16.655Z,99402.97
2023-02-07T22:51:18.365Z,99406.38
2023-02-07T22:54:09.998Z,99402.13
2023-02-07T22:56:55.360Z,99406.44
2023-02-07T22:59:40.617Z,99402.25
2023-02-07T23:02:25.966Z,99399.91
2023-02-07T23:05:12.008Z,99398.28
2023-02-07T23:07:57.677Z,99399.25
2023-02-07T23:10:43.770Z,99397.72
2023-02-07T23:13:29.444Z,99396.03
2023-02-07T23:16:18.103Z,99394.34
2023-02-07T23:19:07.569Z,99392.66
2023-02-07T23:21:53.138Z,99380.81
2023-02-07T23:24:38.370Z,99389.53
2023-02-07T23:27:23.937Z,99381.78
2023-02-07T23:30:11.690Z,99387.75
2023-02-07T23:32:56.895Z,99380.13
2023-02-07T23:35:42.658Z,99376.91
2023-02-07T23:38:28.160Z,99378.72
2023-02-07T23:41:13.601Z,99381.31
2023-02-07T23:44:02.704Z,99373.63
2023-02-07T23:46:48.135Z,99383.91
2023-02-07T23:49:33.499Z,99384.03
2023-02-07T23:52:20.840Z,99387.59
2023-02-07T23:55:06.654Z,99380.06
2023-02-07T23:57:52.046Z,99377.53
